sensor_id;sensor_type;location;lat;lon;timestamp;pressure;altitude;pressure_sealevel;temperature;humidity
34235;BME280;20500;49.856;20.290;2023-03-03T00:02:07;99181.69;;;-2.98;64.07
34235;BME280;20500;49.856;20.290;2023-03-03T00:05:14;99180.84;;;-2.99;63.92
34235;BME280;20500;49.856;20.290;2023-03-03T00:08:22;99178.28;;;-3.03;63.87
34235;BME280;20500;49.856;20.290;2023-03-03T00:11:28;99177.63;;;-3.04;64.11
34235;BME280;20500;49.856;20.290;2023-03-03T00:14:33;99178.65;;;-3.00;64.21
34235;BME280;20500;49.856;20.290;2023-03-03T00:17:39;99177.50;;;-2.99;64.05
34235;BME280;20500;49.856;20.290;2023-03-03T00:20:46;99177.34;;;-3.08;63.95
34235;BME280;20500;49.856;20.290;2023-03-03T00:23:54;99173.02;;;-3.19;64.32
34235;BME280;20500;49.856;20.290;2023-03-03T00:27:08;99174.58;;;-3.24;64.38
34235;BME280;20500;49.856;20.290;2023-03-03T00:30:24;99178.64;;;-3.24;64.60
34235;BME280;20500;49.856;20.290;2023-03-03T00:33:33;99178.70;;;-3.25;64.44
34235;BME280;20500;49.856;20.290;2023-03-03T00:36:42;99177.11;;;-3.27;64.54
34235;BME280;20500;49.856;20.290;2023-03-03T00:39:49;99173.73;;;-3.30;64.46
34235;BME280;20500;49.856;20.290;2023-03-03T00:42:56;99172.34;;;-3.31;64.61
34235;BME280;20500;49.856;20.290;2023-03-03T00:46:03;99175.31;;;-3.33;64.65
34235;BME280;20500;49.856;20.290;2023-03-03T00:49:23;99173.27;;;-3.37;64.87
34235;BME280;20500;49.856;20.290;2023-03-03T00:52:35;99168.50;;;-3.37;64.91
34235;BME280;20500;49.856;20.290;2023-03-03T00:55:44;99164.32;;;-3.39;64.85
34235;BME280;20500;49.856;20.290;2023-03-03T00:58:51;99160.33;;;-3.41;64.99
34235;BME280;20500;49.856;20.290;2023-03-03T01:01:57;99156.30;;;-3.41;64.90
34235;BME280;20500;49.856;20.290;2023-03-03T01:05:04;99153.45;;;-3.41;64.92
34235;BME280;20500;49.856;20.290;2023-03-03T01:08:11;99156.77;;;-3.37;64.94
34235;BME280;20500;49.856;20.290;2023-03-03T01:11:20;99148.57;;;-3.37;65.00
34235;BME280;20500;49.856;20.290;2023-03-03T01:14:28;99144.73;;;-3.35;65.12
34235;BME280;20500;49.856;20.290;2023-03-03T01:17:32;99146.44;;;-3.33;65.27
34235;BME280;20500;49.856;20.290;2023-03-03T01:20:39;99139.81;;;-3.36;65.13
34235;BME280;20500;49.856;20.290;2023-03-03T01:23:46;99134.08;;;-3.35;65.00
34235;BME280;20500;49.856;20.290;2023-03-03T01:26:52;99132.47;;;-3.37;65.05
34235;BME280;20500;49.856;20.290;2023-03-03T01:29:57;99129.83;;;-3.41;65.12
34235;BME280;20500;49.856;20.290;2023-03-03T01:33:04;99130.96;;;-3.42;65.33
34235;BME280;20500;49.856;20.290;2023-03-03T01:36:10;99133.60;;;-3.41;65.20
34235;BME280;20500;49.856;20.290;2023-03-03T01:39:16;99136.69;;;-3.49;65.08
34235;BME280;20500;49.856;20.290;2023-03-03T01:42:23;99135.98;;;-3.57;65.12
34235;BME280;20500;49.856;20.290;2023-03-03T01:49:18;99139.02;;;-3.67;65.51
34235;BME280;20500;49.856;20.290;2023-03-03T01:52:29;99140.47;;;-3.70;65.59
34235;BME280;20500;49.856;20.290;2023-03-03T01:55:38;99138.46;;;-3.78;65.35
34235;BME280;20500;49.856;20.290;2023-03-03T01:58:48;99137.44;;;-3.85;65.60
34235;BME280;20500;49.856;20.290;2023-03-03T02:01:55;99137.21;;;-3.87;65.84
34235;BME280;20500;49.856;20.290;2023-03-03T02:05:02;99138.75;;;-3.89;65.85
34235;BME280;20500;49.856;20.290;2023-03-03T02:08:09;99143.50;;;-3.92;66.06
34235;BME280;20500;49.856;20.290;2023-03-03T02:11:21;99141.77;;;-3.96;66.04
34235;BME280;20500;49.856;20.290;2023-03-03T02:14:28;99141.67;;;-3.97;66.07
34235;BME280;20500;49.856;20.290;2023-03-03T02:17:34;99140.52;;;-3.93;66.13
34235;BME280;20500;49.856;20.290;2023-03-03T02:20:49;99143.39;;;-3.93;66.06
34235;BME280;20500;49.856;20.290;2023-03-03T02:24:02;99140.52;;;-3.92;66.01
34235;BME280;20500;49.856;20.290;2023-03-03T02:27:12;99137.63;;;-3.91;66.16
34235;BME280;20500;49.856;20.290;2023-03-03T02:30:20;99137.75;;;-3.87;66.33
34235;BME280;20500;49.856;20.290;2023-03-03T02:33:27;99142.30;;;-3.83;66.11
34235;BME280;20500;49.856;20.290;2023-03-03T02:36:35;99143.85;;;-3.82;66.17
34235;BME280;20500;49.856;20.290;2023-03-03T02:39:42;99146.27;;;-3.78;66.22
34235;BME280;20500;49.856;20.290;2023-03-03T02:42:49;99141.77;;;-3.78;66.31
34235;BME280;20500;49.856;20.290;2023-03-03T02:45:57;99136.88;;;-3.81;65.98
34235;BME280;20500;49.856;20.290;2023-03-03T02:49:02;99136.68;;;-3.81;66.09
34235;BME280;20500;49.856;20.290;2023-03-03T02:52:11;99132.31;;;-3.85;66.06
34235;BME280;20500;49.856;20.290;2023-03-03T02:55:18;99123.46;;;-3.95;66.12
34235;BME280;20500;49.856;20.290;2023-03-03T02:58:23;99125.20;;;-3.97;66.16
34235;BME280;20500;49.856;20.290;2023-03-03T03:01:29;99124.59;;;-4.02;66.04
34235;BME280;20500;49.856;20.290;2023-03-03T03:04:40;99125.42;;;-4.13;66.16
34235;BME280;20500;49.856;20.290;2023-03-03T03:07:45;99129.23;;;-4.21;66.39
34235;BME280;20500;49.856;20.290;2023-03-03T03:10:51;99126.89;;;-4.29;66.33
34235;BME280;20500;49.856;20.290;2023-03-03T03:13:56;99124.63;;;-4.33;66.61
34235;BME280;20500;49.856;20.290;2023-03-03T03:17:02;99123.55;;;-4.33;66.76
34235;BME280;20500;49.856;20.290;2023-03-03T03:20:11;99118.97;;;-4.33;66.63
34235;BME280;20500;49.856;20.290;2023-03-03T03:23:17;99121.59;;;-4.33;66.66
34235;BME280;20500;49.856;20.290;2023-03-03T03:26:25;99125.27;;;-4.29;66.74
34235;BME280;20500;49.856;20.290;2023-03-03T03:29:32;99122.08;;;-4.29;66.77
34235;BME280;20500;49.856;20.290;2023-03-03T03:32:36;99123.14;;;-4.29;66.70
34235;BME280;20500;49.856;20.290;2023-03-03T03:35:43;99122.84;;;-4.33;66.70
34235;BME280;20500;49.856;20.290;2023-03-03T03:38:51;99121.95;;;-4.36;66.91
34235;BME280;20500;49.856;20.290;2023-03-03T03:41:57;99121.89;;;-4.35;66.74
34235;BME280;20500;49.856;20.290;2023-03-03T03:45:02;99120.42;;;-4.37;66.73
34235;BME280;20500;49.856;20.290;2023-03-03T03:48:08;99117.29;;;-4.41;66.86
34235;BME280;20500;49.856;20.290;2023-03-03T03:51:15;99122.02;;;-4.40;66.79
34235;BME280;20500;49.856;20.290;2023-03-03T03:54:19;99120.20;;;-4.43;66.83
34235;BME280;20500;49.856;20.290;2023-03-03T03:57:25;99121.63;;;-4.46;66.91
34235;BME280;20500;49.856;20.290;2023-03-03T04:00:30;99123.33;;;-4.48;66.93
34235;BME280;20500;49.856;20.290;2023-03-03T04:03:37;99121.09;;;-4.52;66.92
34235;BME280;20500;49.856;20.290;2023-03-03T04:06:41;99117.73;;;-4.58;66.94
34235;BME280;20500;49.856;20.290;2023-03-03T04:09:48;99112.36;;;-4.63;66.93
34235;BME280;20500;49.856;20.290;2023-03-03T04:12:54;99113.14;;;-4.65;67.14
34235;BME280;20500;49.856;20.290;2023-03-03T04:15:59;99117.01;;;-4.68;66.96
34235;BME280;20500;49.856;20.290;2023-03-03T04:19:05;99115.85;;;-4.69;66.96
34235;BME280;20500;49.856;20.290;2023-03-03T04:22:10;99114.05;;;-4.75;66.89
34235;BME280;20500;49.856;20.290;2023-03-03T04:25:18;99114.17;;;-4.80;66.93
34235;BME280;20500;49.856;20.290;2023-03-03T04:28:24;99116.80;;;-4.86;66.89
34235;BME280;20500;49.856;20.290;2023-03-03T04:31:30;99121.14;;;-4.91;67.02
34235;BME280;20500;49.856;20.290;2023-03-03T04:34:37;99118.42;;;-4.94;67.18
34235;BME280;20500;49.856;20.290;2023-03-03T04:37:41;99116.58;;;-4.95;67.17
34235;BME280;20500;49.856;20.290;2023-03-03T04:40:48;99112.44;;;-4.97;67.10
34235;BME280;20500;49.856;20.290;2023-03-03T04:43:54;99116.32;;;-4.97;67.31
34235;BME280;20500;49.856;20.290;2023-03-03T04:47:01;99112.27;;;-4.91;67.42
34235;BME280;20500;49.856;20.290;2023-03-03T04:50:06;99113.27;;;-4.83;67.42
34235;BME280;20500;49.856;20.290;2023-03-03T04:53:11;99116.46;;;-4.80;67.32
34235;BME280;20500;49.856;20.290;2023-03-03T04:56:17;99115.26;;;-4.87;67.23
34235;BME280;20500;49.856;20.290;2023-03-03T04:59:24;99118.44;;;-4.94;67.14
34235;BME280;20500;49.856;20.290;2023-03-03T05:02:28;99117.11;;;-4.99;67.26
34235;BME280;20500;49.856;20.290;2023-03-03T05:05:35;99122.56;;;-5.01;67.20
34235;BME280;20500;49.856;20.290;2023-03-03T05:08:39;99118.27;;;-5.04;67.38
34235;BME280;20500;49.856;20.290;2023-03-03T05:11:47;99122.45;;;-5.06;67.32
34235;BME280;20500;49.856;20.290;2023-03-03T05:14:51;99125.35;;;-5.07;67.32
34235;BME280;20500;49.856;20.290;2023-03-03T05:17:57;99125.86;;;-5.10;67.44
34235;BME280;20500;49.856;20.290;2023-03-03T05:21:02;99129.11;;;-5.11;67.39
34235;BME280;20500;49.856;20.290;2023-03-03T05:24:09;99129.52;;;-5.09;67.40
34235;BME280;20500;49.856;20.290;2023-03-03T05:27:16;99129.80;;;-5.07;67.43
34235;BME280;20500;49.856;20.290;2023-03-03T05:30:22;99133.16;;;-5.07;67.71
34235;BME280;20500;49.856;20.290;2023-03-03T05:33:28;99132.52;;;-5.12;67.74
34235;BME280;20500;49.856;20.290;2023-03-03T05:36:33;99136.98;;;-5.09;68.00
34235;BME280;20500;49.856;20.290;2023-03-03T05:39:39;99133.76;;;-5.05;67.98
34235;BME280;20500;49.856;20.290;2023-03-03T05:42:48;99138.30;;;-5.01;67.95
34235;BME280;20500;49.856;20.290;2023-03-03T05:45:58;99142.67;;;-5.00;67.90
34235;BME280;20500;49.856;20.290;2023-03-03T05:49:05;99142.13;;;-5.00;67.72
34235;BME280;20500;49.856;20.290;2023-03-03T05:52:09;99144.86;;;-4.98;67.74
34235;BME280;20500;49.856;20.290;2023-03-03T05:55:16;99149.40;;;-4.90;68.06
34235;BME280;20500;49.856;20.290;2023-03-03T05:58:22;99150.55;;;-4.85;67.80
34235;BME280;20500;49.856;20.290;2023-03-03T06:01:28;99158.38;;;-4.79;67.93
34235;BME280;20500;49.856;20.290;2023-03-03T06:04:33;99161.36;;;-4.72;68.07
34235;BME280;20500;49.856;20.290;2023-03-03T06:07:39;99167.29;;;-4.71;67.95
34235;BME280;20500;49.856;20.290;2023-03-03T06:10:46;99173.85;;;-4.71;67.99
34235;BME280;20500;49.856;20.290;2023-03-03T06:13:50;99179.03;;;-4.69;68.11
34235;BME280;20500;49.856;20.290;2023-03-03T06:16:57;99180.80;;;-4.65;68.17
34235;BME280;20500;49.856;20.290;2023-03-03T06:20:03;99186.02;;;-4.57;68.51
34235;BME280;20500;49.856;20.290;2023-03-03T06:23:10;99188.47;;;-4.50;68.42
34235;BME280;20500;49.856;20.290;2023-03-03T06:26:16;99190.20;;;-4.46;68.42
34235;BME280;20500;49.856;20.290;2023-03-03T06:29:21;99192.08;;;-4.39;68.73
34235;BME280;20500;49.856;20.290;2023-03-03T06:32:27;99193.95;;;-4.31;68.77
34235;BME280;20500;49.856;20.290;2023-03-03T06:35:31;99192.80;;;-4.17;68.74
34235;BME280;20500;49.856;20.290;2023-03-03T06:38:38;99198.50;;;-4.05;68.86
34235;BME280;20500;49.856;20.290;2023-03-03T06:41:42;99200.26;;;-3.95;68.97
34235;BME280;20500;49.856;20.290;2023-03-03T06:44:49;99199.31;;;-3.85;69.17
34235;BME280;20500;49.856;20.290;2023-03-03T06:47:55;99199.38;;;-3.77;69.07
34235;BME280;20500;49.856;20.290;2023-03-03T06:51:01;99202.91;;;-3.71;69.21
34235;BME280;20500;49.856;20.290;2023-03-03T06:54:12;99207.30;;;-3.64;69.33
34235;BME280;20500;49.856;20.290;2023-03-03T06:57:24;99208.01;;;-3.58;69.23
34235;BME280;20500;49.856;20.290;2023-03-03T07:00:31;99209.30;;;-3.50;69.44
34235;BME280;20500;49.856;20.290;2023-03-03T07:03:35;99212.77;;;-3.41;69.40
34235;BME280;20500;49.856;20.290;2023-03-03T07:06:42;99215.91;;;-3.35;69.60
34235;BME280;20500;49.856;20.290;2023-03-03T07:09:47;99212.02;;;-3.27;69.54
34235;BME280;20500;49.856;20.290;2023-03-03T07:12:55;99209.73;;;-3.18;69.65
34235;BME280;20500;49.856;20.290;2023-03-03T07:16:08;99205.92;;;-3.08;69.68
34235;BME280;20500;49.856;20.290;2023-03-03T07:19:20;99196.87;;;-2.97;69.89
34235;BME280;20500;49.856;20.290;2023-03-03T07:22:29;99191.09;;;-2.83;69.98
34235;BME280;20500;49.856;20.290;2023-03-03T07:25:35;99189.30;;;-2.69;70.12
34235;BME280;20500;49.856;20.290;2023-03-03T07:28:54;99196.25;;;-2.55;70.17
34235;BME280;20500;49.856;20.290;2023-03-03T07:32:02;99191.75;;;-2.43;70.15
34235;BME280;20500;49.856;20.290;2023-03-03T07:35:32;99186.42;;;-2.32;70.24
34235;BME280;20500;49.856;20.290;2023-03-03T07:38:44;99184.63;;;-2.20;70.17
34235;BME280;20500;49.856;20.290;2023-03-03T07:41:56;99181.34;;;-2.06;70.43
34235;BME280;20500;49.856;20.290;2023-03-03T07:45:22;99173.80;;;-1.91;70.36
34235;BME280;20500;49.856;20.290;2023-03-03T07:48:33;99166.00;;;-1.80;70.29
34235;BME280;20500;49.856;20.290;2023-03-03T07:51:41;99159.19;;;-1.72;70.50
34235;BME280;20500;49.856;20.290;2023-03-03T07:54:47;99158.69;;;-1.57;70.81
34235;BME280;20500;49.856;20.290;2023-03-03T07:57:54;99159.16;;;-1.40;70.85
34235;BME280;20500;49.856;20.290;2023-03-03T08:01:26;99156.59;;;-1.23;70.75
34235;BME280;20500;49.856;20.290;2023-03-03T08:04:38;99137.94;;;-1.06;70.84
34235;BME280;20500;49.856;20.290;2023-03-03T08:07:46;99123.42;;;-0.89;70.91
34235;BME280;20500;49.856;20.290;2023-03-03T08:10:55;99111.80;;;-0.76;70.93
34235;BME280;20500;49.856;20.290;2023-03-03T08:14:04;99116.25;;;-0.64;70.82
34235;BME280;20500;49.856;20.290;2023-03-03T08:17:20;99127.94;;;-0.53;70.81
34235;BME280;20500;49.856;20.290;2023-03-03T08:20:47;99131.98;;;-0.39;70.97
34235;BME280;20500;49.856;20.290;2023-03-03T08:23:54;99134.91;;;-0.26;70.98
34235;BME280;20500;49.856;20.290;2023-03-03T08:27:00;99128.30;;;-0.16;70.98
34235;BME280;20500;49.856;20.290;2023-03-03T08:30:09;99125.92;;;-0.06;70.93
34235;BME280;20500;49.856;20.290;2023-03-03T08:33:16;99135.97;;;0.08;70.94
34235;BME280;20500;49.856;20.290;2023-03-03T08:36:23;99135.80;;;0.20;71.08
34235;BME280;20500;49.856;20.290;2023-03-03T08:39:27;99132.21;;;0.32;71.23
34235;BME280;20500;49.856;20.290;2023-03-03T08:42:33;99128.33;;;0.45;71.18
34235;BME280;20500;49.856;20.290;2023-03-03T08:45:40;99122.90;;;0.63;71.20
34235;BME280;20500;49.856;20.290;2023-03-03T08:48:44;99125.69;;;0.80;71.11
34235;BME280;20500;49.856;20.290;2023-03-03T08:51:50;99136.33;;;0.90;70.97
34235;BME280;20500;49.856;20.290;2023-03-03T08:54:58;99141.48;;;0.97;71.12
34235;BME280;20500;49.856;20.290;2023-03-03T08:58:03;99145.95;;;1.08;71.02
34235;BME280;20500;49.856;20.290;2023-03-03T09:01:09;99145.95;;;1.20;71.32
34235;BME280;20500;49.856;20.290;2023-03-03T09:04:15;99138.48;;;1.35;71.21
34235;BME280;20500;49.856;20.290;2023-03-03T09:07:20;99133.79;;;1.51;71.11
34235;BME280;20500;49.856;20.290;2023-03-03T09:10:28;99132.06;;;1.66;71.15
34235;BME280;20500;49.856;20.290;2023-03-03T09:13:36;99130.05;;;1.77;71.21
34235;BME280;20500;49.856;20.290;2023-03-03T09:16:44;99127.73;;;1.86;71.10
34235;BME280;20500;49.856;20.290;2023-03-03T09:19:53;99133.98;;;1.92;70.97
34235;BME280;20500;49.856;20.290;2023-03-03T09:23:23;99145.45;;;1.99;70.90
34235;BME280;20500;49.856;20.290;2023-03-03T09:26:31;99145.65;;;2.06;70.96
34235;BME280;20500;49.856;20.290;2023-03-03T09:29:48;99155.03;;;2.07;70.88
34235;BME280;20500;49.856;20.290;2023-03-03T09:32:56;99153.94;;;2.11;70.76
34235;BME280;20500;49.856;20.290;2023-03-03T09:36:21;99154.38;;;2.19;70.89
34235;BME280;20500;49.856;20.290;2023-03-03T09:39:30;99157.83;;;2.25;70.72
34235;BME280;20500;49.856;20.290;2023-03-03T09:42:54;99158.86;;;2.30;70.68
34235;BME280;20500;49.856;20.290;2023-03-03T09:46:10;99154.14;;;2.37;70.72
34235;BME280;20500;49.856;20.290;2023-03-03T09:49:27;99151.68;;;2.45;70.59
34235;BME280;20500;49.856;20.290;2023-03-03T09:52:42;99143.84;;;2.53;70.81
34235;BME280;20500;49.856;20.290;2023-03-03T09:55:53;99139.63;;;2.64;70.83
34235;BME280;20500;49.856;20.290;2023-03-03T09:59:17;99132.35;;;2.79;70.78
34235;BME280;20500;49.856;20.290;2023-03-03T10:02:40;99141.52;;;2.93;70.72
34235;BME280;20500;49.856;20.290;2023-03-03T10:05:55;99140.44;;;3.01;70.61
34235;BME280;20500;49.856;20.290;2023-03-03T10:09:34;99141.90;;;3.13;70.75
34235;BME280;20500;49.856;20.290;2023-03-03T10:12:47;99137.91;;;3.28;70.64
34235;BME280;20500;49.856;20.290;2023-03-03T10:20:27;99133.96;;;3.57;70.36
34235;BME280;20500;49.856;20.290;2023-03-03T10:23:55;99136.48;;;3.66;70.43
34235;BME280;20500;49.856;20.290;2023-03-03T10:27:17;99141.02;;;3.76;70.31
34235;BME280;20500;49.856;20.290;2023-03-03T10:30:37;99140.26;;;3.81;70.22
34235;BME280;20500;49.856;20.290;2023-03-03T10:34:15;99143.43;;;3.83;70.03
34235;BME280;20500;49.856;20.290;2023-03-03T10:37:30;99146.16;;;3.83;69.98
34235;BME280;20500;49.856;20.290;2023-03-03T10:40:41;99145.55;;;3.83;70.13
34235;BME280;20500;49.856;20.290;2023-03-03T10:44:03;99152.91;;;3.87;70.01
34235;BME280;20500;49.856;20.290;2023-03-03T10:47:27;99152.22;;;3.95;70.06
34235;BME280;20500;49.856;20.290;2023-03-03T10:50:46;99156.83;;;4.00;70.03
34235;BME280;20500;49.856;20.290;2023-03-03T10:54:05;99156.53;;;4.05;69.92
34235;BME280;20500;49.856;20.290;2023-03-03T10:57:19;99153.78;;;4.08;69.82
34235;BME280;20500;49.856;20.290;2023-03-03T11:00:32;99158.71;;;3.95;69.50
34235;BME280;20500;49.856;20.290;2023-03-03T11:03:50;99158.84;;;3.89;69.41
34235;BME280;20500;49.856;20.290;2023-03-03T11:07:07;99156.39;;;3.88;69.44
34235;BME280;20500;49.856;20.290;2023-03-03T11:10:29;99158.33;;;3.89;69.44
34235;BME280;20500;49.856;20.290;2023-03-03T11:13:46;99153.30;;;3.87;69.25
34235;BME280;20500;49.856;20.290;2023-03-03T11:16:59;99148.05;;;3.90;69.32
34235;BME280;20500;49.856;20.290;2023-03-03T11:20:15;99152.08;;;3.93;69.22
34235;BME280;20500;49.856;20.290;2023-03-03T11:30:33;99150.09;;;4.01;69.24
34235;BME280;20500;49.856;20.290;2023-03-03T11:33:46;99151.51;;;4.05;69.19
34235;BME280;20500;49.856;20.290;2023-03-03T11:37:00;99155.05;;;4.08;69.10
34235;BME280;20500;49.856;20.290;2023-03-03T11:40:14;99154.81;;;4.04;68.77
34235;BME280;20500;49.856;20.290;2023-03-03T11:43:27;99152.21;;;4.03;68.80
34235;BME280;20500;49.856;20.290;2023-03-03T11:46:45;99152.95;;;4.01;68.79
34235;BME280;20500;49.856;20.290;2023-03-03T11:49:57;99148.70;;;3.99;68.51
34235;BME280;20500;49.856;20.290;2023-03-03T11:53:21;99143.55;;;3.98;68.61
34235;BME280;20500;49.856;20.290;2023-03-03T11:56:34;99151.33;;;4.01;68.72
34235;BME280;20500;49.856;20.290;2023-03-03T11:59:53;99157.05;;;4.03;68.39
34235;BME280;20500;49.856;20.290;2023-03-03T12:03:14;99150.95;;;4.02;68.46
34235;BME280;20500;49.856;20.290;2023-03-03T12:06:27;99146.52;;;4.07;68.46
34235;BME280;20500;49.856;20.290;2023-03-03T12:09:41;99149.10;;;4.13;68.42
34235;BME280;20500;49.856;20.290;2023-03-03T12:12:55;99148.36;;;4.16;68.51
34235;BME280;20500;49.856;20.290;2023-03-03T12:16:06;99152.52;;;4.22;68.50
34235;BME280;20500;49.856;20.290;2023-03-03T12:19:34;99150.42;;;4.27;68.38
34235;BME280;20500;49.856;20.290;2023-03-03T12:22:51;99144.23;;;4.26;68.16
34235;BME280;20500;49.856;20.290;2023-03-03T12:26:13;99140.56;;;4.27;68.38
34235;BME280;20500;49.856;20.290;2023-03-03T12:29:26;99138.87;;;4.30;68.39
34235;BME280;20500;49.856;20.290;2023-03-03T12:32:50;99137.05;;;4.30;68.18
34235;BME280;20500;49.856;20.290;2023-03-03T12:36:09;99134.48;;;4.32;68.17
34235;BME280;20500;49.856;20.290;2023-03-03T12:39:27;99136.65;;;4.42;68.46
34235;BME280;20500;49.856;20.290;2023-03-03T12:42:53;99139.13;;;4.48;68.14
34235;BME280;20500;49.856;20.290;2023-03-03T12:46:09;99138.36;;;4.49;68.17
34235;BME280;20500;49.856;20.290;2023-03-03T12:49:18;99140.70;;;4.45;67.95
34235;BME280;20500;49.856;20.290;2023-03-03T12:52:32;99137.96;;;4.41;68.12
34235;BME280;20500;49.856;20.290;2023-03-03T12:55:48;99133.46;;;4.39;68.07
34235;BME280;20500;49.856;20.290;2023-03-03T12:59:02;99135.23;;;4.36;67.95
34235;BME280;20500;49.856;20.290;2023-03-03T13:02:39;99135.63;;;4.33;68.04
34235;BME280;20500;49.856;20.290;2023-03-03T13:05:53;99130.36;;;4.26;68.01
34235;BME280;20500;49.856;20.290;2023-03-03T13:09:14;99132.60;;;4.24;68.13
34235;BME280;20500;49.856;20.290;2023-03-03T13:12:41;99133.67;;;4.25;68.08
34235;BME280;20500;49.856;20.290;2023-03-03T13:15:56;99127.80;;;4.25;67.93
34235;BME280;20500;49.856;20.290;2023-03-03T13:19:10;99121.65;;;4.27;68.06
34235;BME280;20500;49.856;20.290;2023-03-03T13:22:32;99114.88;;;4.34;67.99
34235;BME280;20500;49.856;20.290;2023-03-03T13:25:52;99108.43;;;4.36;67.79
34235;BME280;20500;49.856;20.290;2023-03-03T13:29:07;99108.83;;;4.38;67.67
34235;BME280;20500;49.856;20.290;2023-03-03T13:32:17;99118.41;;;4.39;67.62
34235;BME280;20500;49.856;20.290;2023-03-03T13:35:41;99119.50;;;4.31;67.43
34235;BME280;20500;49.856;20.290;2023-03-03T13:38:51;99116.52;;;4.28;67.52
34235;BME280;20500;49.856;20.290;2023-03-03T13:42:01;99121.13;;;4.25;67.48
34235;BME280;20500;49.856;20.290;2023-03-03T13:45:17;99118.17;;;4.18;67.42
34235;BME280;20500;49.856;20.290;2023-03-03T13:48:36;99118.52;;;4.03;67.43
34235;BME280;20500;49.856;20.290;2023-03-03T13:51:50;99121.27;;;3.86;67.24
34235;BME280;20500;49.856;20.290;2023-03-03T13:55:15;99127.10;;;3.71;67.43
34235;BME280;20500;49.856;20.290;2023-03-03T13:58:28;99130.84;;;3.56;67.17
34235;BME280;20500;49.856;20.290;2023-03-03T14:01:52;99139.02;;;3.38;67.06
34235;BME280;20500;49.856;20.290;2023-03-03T14:05:03;99136.64;;;3.22;66.98
34235;BME280;20500;49.856;20.290;2023-03-03T14:08:22;99139.23;;;3.17;67.01
34235;BME280;20500;49.856;20.290;2023-03-03T14:11:30;99143.41;;;3.15;67.17
34235;BME280;20500;49.856;20.290;2023-03-03T14:14:48;99148.17;;;3.11;67.11
34235;BME280;20500;49.856;20.290;2023-03-03T14:18:08;99149.20;;;3.04;67.00
34235;BME280;20500;49.856;20.290;2023-03-03T14:21:22;99142.64;;;2.88;66.98
34235;BME280;20500;49.856;20.290;2023-03-03T14:24:31;99142.78;;;2.70;67.03
34235;BME280;20500;49.856;20.290;2023-03-03T14:27:50;99139.20;;;2.59;67.19
34235;BME280;20500;49.856;20.290;2023-03-03T14:31:00;99138.52;;;2.50;67.02
34235;BME280;20500;49.856;20.290;2023-03-03T14:34:37;99139.08;;;2.44;67.05
34235;BME280;20500;49.856;20.290;2023-03-03T14:37:45;99137.27;;;2.35;66.95
34235;BME280;20500;49.856;20.290;2023-03-03T14:41:10;99135.98;;;2.31;67.14
34235;BME280;20500;49.856;20.290;2023-03-03T14:44:26;99137.01;;;2.34;67.17
34235;BME280;20500;49.856;20.290;2023-03-03T14:47:35;99138.52;;;2.35;67.26
34235;BME280;20500;49.856;20.290;2023-03-03T14:50:46;99136.56;;;2.35;67.22
34235;BME280;20500;49.856;20.290;2023-03-03T14:53:54;99138.73;;;2.33;67.25
34235;BME280;20500;49.856;20.290;2023-03-03T14:57:04;99143.15;;;2.31;67.20
34235;BME280;20500;49.856;20.290;2023-03-03T15:00:28;99142.64;;;2.27;67.28
34235;BME280;20500;49.856;20.290;2023-03-03T15:03:45;99148.73;;;2.18;67.09
34235;BME280;20500;49.856;20.290;2023-03-03T15:06:53;99146.33;;;2.06;67.16
34235;BME280;20500;49.856;20.290;2023-03-03T15:10:00;99142.20;;;1.98;67.24
34235;BME280;20500;49.856;20.290;2023-03-03T15:13:34;99140.30;;;1.90;67.19
34235;BME280;20500;49.856;20.290;2023-03-03T15:16:40;99144.84;;;1.76;67.30
34235;BME280;20500;49.856;20.290;2023-03-03T15:19:58;99142.23;;;1.64;67.37
34235;BME280;20500;49.856;20.290;2023-03-03T15:23:30;99137.08;;;1.55;67.41
34235;BME280;20500;49.856;20.290;2023-03-03T15:26:45;99137.83;;;1.48;67.39
34235;BME280;20500;49.856;20.290;2023-03-03T15:30:01;99141.63;;;1.42;67.46
34235;BME280;20500;49.856;20.290;2023-03-03T15:33:17;99148.77;;;1.43;67.48
34235;BME280;20500;49.856;20.290;2023-03-03T15:36:33;99147.21;;;1.35;67.59
34235;BME280;20500;49.856;20.290;2023-03-03T15:39:44;99146.80;;;1.27;67.53
34235;BME280;20500;49.856;20.290;2023-03-03T15:43:02;99148.34;;;1.26;67.51
34235;BME280;20500;49.856;20.290;2023-03-03T15:46:24;99148.16;;;1.17;67.45
34235;BME280;20500;49.856;20.290;2023-03-03T15:49:57;99151.34;;;1.08;67.64
34235;BME280;20500;49.856;20.290;2023-03-03T15:53:21;99151.28;;;1.02;67.76
34235;BME280;20500;49.856;20.290;2023-03-03T15:56:39;99144.38;;;1.04;67.87
34235;BME280;20500;49.856;20.290;2023-03-03T16:00:02;99146.34;;;1.01;67.74
34235;BME280;20500;49.856;20.290;2023-03-03T16:03:15;99150.27;;;0.99;67.85
34235;BME280;20500;49.856;20.290;2023-03-03T16:06:26;99155.95;;;1.02;67.99
34235;BME280;20500;49.856;20.290;2023-03-03T16:09:45;99160.33;;;1.05;68.20
34235;BME280;20500;49.856;20.290;2023-03-03T16:13:02;99165.52;;;1.08;68.19
34235;BME280;20500;49.856;20.290;2023-03-03T16:16:22;99163.55;;;1.10;68.19
34235;BME280;20500;49.856;20.290;2023-03-03T16:19:38;99167.67;;;1.12;68.32
34235;BME280;20500;49.856;20.290;2023-03-03T16:23:00;99172.08;;;1.10;68.15
34235;BME280;20500;49.856;20.290;2023-03-03T16:26:21;99172.36;;;1.02;68.24
34235;BME280;20500;49.856;20.290;2023-03-03T16:29:42;99175.98;;;0.94;68.14
34235;BME280;20500;49.856;20.290;2023-03-03T16:32:52;99179.77;;;0.94;68.31
34235;BME280;20500;49.856;20.290;2023-03-03T16:36:05;99188.76;;;0.91;68.26
34235;BME280;20500;49.856;20.290;2023-03-03T16:39:19;99189.81;;;0.91;68.31
34235;BME280;20500;49.856;20.290;2023-03-03T16:42:28;99190.21;;;0.90;68.31
34235;BME280;20500;49.856;20.290;2023-03-03T16:45:37;99190.39;;;0.88;68.24
34235;BME280;20500;49.856;20.290;2023-03-03T16:48:50;99191.64;;;0.84;68.38
34235;BME280;20500;49.856;20.290;2023-03-03T16:52:02;99189.33;;;0.77;68.41
34235;BME280;20500;49.856;20.290;2023-03-03T16:55:16;99192.19;;;0.74;68.33
34235;BME280;20500;49.856;20.290;2023-03-03T16:58:31;99192.24;;;0.69;68.39
34235;BME280;20500;49.856;20.290;2023-03-03T17:01:39;99192.59;;;0.67;68.61
34235;BME280;20500;49.856;20.290;2023-03-03T17:04:55;99195.36;;;0.65;68.52